Skipwith, Virginia
Current Conditions -  °F | °C
As of 8:35 PM on Thursday 27 Nov 2014 (Local Time) from KCXE Reporting Station
Clear Clear  
Wind Chill: 37°   Ceiling: Unl
Heat Index: 37°   Visibility: 10mi
Dew Point: 29°   Wind: 3mph
Humidity: 71%   Direction: 290°WNW
Pressure: 30.21"   Gusts: NA
Location:  36.72°N, 78.52°W
Report Text: KCXE 280135Z AUTO 29003KT 10SM CLR 03/M02 A3021 RMK AO1 T00291019
Loading
Personal Weather Stations






























Interactive Weather Map New forecast layout! Learn more

10-Day Weather Forecast

Advertisements
Track Severe Weather on mobile